sensor_id;sensor_type;location;lat;lon;timestamp;pressure;altitude;pressure_sealevel;temperature;humidity
54236;BME280;40151;43.606;1.472;2022-07-29T00:01:18;99306.28;;;29.17;39.52
54236;BME280;40151;43.606;1.472;2022-07-29T00:07:02;99303.59;;;29.17;38.99
54236;BME280;40151;43.606;1.472;2022-07-29T00:15:56;99295.84;;;29.14;39.54
54236;BME280;40151;43.606;1.472;2022-07-29T00:18:23;99291.47;;;29.13;39.09
54236;BME280;40151;43.606;1.472;2022-07-29T02:09:47;99243.56;;;28.80;39.58
54236;BME280;40151;43.606;1.472;2022-07-29T02:30:04;99275.53;;;28.74;39.44
54236;BME280;40151;43.606;1.472;2022-07-29T02:36:11;99277.53;;;28.72;39.65
54236;BME280;40151;43.606;1.472;2022-07-29T02:55:10;99286.66;;;28.61;39.60
54236;BME280;40151;43.606;1.472;2022-07-29T03:04:53;99278.00;;;28.57;39.45
54236;BME280;40151;43.606;1.472;2022-07-29T03:33:46;99270.56;;;28.51;39.41
54236;BME280;40151;43.606;1.472;2022-07-29T03:42:39;99279.06;;;28.46;39.49
54236;BME280;40151;43.606;1.472;2022-07-29T05:06:28;99398.31;;;28.24;40.47
54236;BME280;40151;43.606;1.472;2022-07-29T05:09:04;99403.69;;;28.24;40.05
54236;BME280;40151;43.606;1.472;2022-07-29T05:11:30;99378.81;;;28.22;40.54
54236;BME280;40151;43.606;1.472;2022-07-29T05:13:56;99385.91;;;28.23;40.34
54236;BME280;40151;43.606;1.472;2022-07-29T05:16:22;99374.31;;;28.22;40.28
54236;BME280;40151;43.606;1.472;2022-07-29T05:18:51;99352.00;;;28.22;40.61
54236;BME280;40151;43.606;1.472;2022-07-29T05:21:18;99350.28;;;28.21;40.23
54236;BME280;40151;43.606;1.472;2022-07-29T05:23:44;99330.53;;;28.22;40.05
54236;BME280;40151;43.606;1.472;2022-07-29T05:26:10;99301.97;;;28.21;40.25
54236;BME280;40151;43.606;1.472;2022-07-29T05:28:36;99304.84;;;28.19;40.13
54236;BME280;40151;43.606;1.472;2022-07-29T05:31:02;99332.50;;;28.20;40.00
54236;BME280;40151;43.606;1.472;2022-07-29T05:33:28;99380.78;;;28.20;39.92
54236;BME280;40151;43.606;1.472;2022-07-29T05:35:54;99428.38;;;28.18;40.37
54236;BME280;40151;43.606;1.472;2022-07-29T05:38:19;99447.97;;;28.18;40.30
54236;BME280;40151;43.606;1.472;2022-07-29T05:40:48;99440.91;;;28.17;40.19
54236;BME280;40151;43.606;1.472;2022-07-29T05:43:14;99444.31;;;28.19;40.36
54236;BME280;40151;43.606;1.472;2022-07-29T05:45:40;99427.63;;;28.15;40.27
54236;BME280;40151;43.606;1.472;2022-07-29T05:48:05;99410.41;;;28.18;40.56
54236;BME280;40151;43.606;1.472;2022-07-29T05:50:31;99407.19;;;28.14;40.46
54236;BME280;40151;43.606;1.472;2022-07-29T05:52:57;99410.84;;;28.13;40.42
54236;BME280;40151;43.606;1.472;2022-07-29T05:55:23;99392.06;;;28.13;40.40
54236;BME280;40151;43.606;1.472;2022-07-29T05:57:49;99365.38;;;28.12;40.78
54236;BME280;40151;43.606;1.472;2022-07-29T06:00:15;99395.44;;;28.15;40.75
54236;BME280;40151;43.606;1.472;2022-07-29T06:02:41;99415.53;;;28.11;40.58
54236;BME280;40151;43.606;1.472;2022-07-29T06:05:07;99359.06;;;28.13;40.99
54236;BME280;40151;43.606;1.472;2022-07-29T06:07:33;99321.50;;;28.13;40.47
54236;BME280;40151;43.606;1.472;2022-07-29T06:09:59;99335.19;;;28.10;40.92
54236;BME280;40151;43.606;1.472;2022-07-29T06:12:29;99349.47;;;28.10;40.77
54236;BME280;40151;43.606;1.472;2022-07-29T06:14:55;99394.91;;;28.12;40.76
54236;BME280;40151;43.606;1.472;2022-07-29T06:17:21;99441.47;;;28.11;40.83
54236;BME280;40151;43.606;1.472;2022-07-29T06:19:47;99446.03;;;28.10;41.02
54236;BME280;40151;43.606;1.472;2022-07-29T06:22:15;99463.94;;;28.10;41.34
54236;BME280;40151;43.606;1.472;2022-07-29T06:24:42;99471.13;;;28.09;41.14
54236;BME280;40151;43.606;1.472;2022-07-29T06:27:12;99455.19;;;28.08;41.34
54236;BME280;40151;43.606;1.472;2022-07-29T06:29:38;99453.34;;;28.08;41.19
54236;BME280;40151;43.606;1.472;2022-07-29T06:32:05;99467.75;;;28.07;41.23
54236;BME280;40151;43.606;1.472;2022-07-29T06:34:32;99456.03;;;28.08;41.16
54236;BME280;40151;43.606;1.472;2022-07-29T06:37:16;99454.34;;;28.07;41.57
54236;BME280;40151;43.606;1.472;2022-07-29T06:40:03;99427.50;;;28.07;41.57
54236;BME280;40151;43.606;1.472;2022-07-29T06:42:47;99444.59;;;28.06;41.83
54236;BME280;40151;43.606;1.472;2022-07-29T06:45:13;99466.19;;;28.05;41.38
54236;BME280;40151;43.606;1.472;2022-07-29T06:47:41;99480.47;;;28.05;41.43
54236;BME280;40151;43.606;1.472;2022-07-29T06:50:07;99484.13;;;28.04;41.60
54236;BME280;40151;43.606;1.472;2022-07-29T06:52:37;99504.59;;;28.05;41.60
54236;BME280;40151;43.606;1.472;2022-07-29T06:55:03;99514.34;;;28.06;41.68
54236;BME280;40151;43.606;1.472;2022-07-29T06:57:29;99514.47;;;28.05;41.58
54236;BME280;40151;43.606;1.472;2022-07-29T06:59:56;99530.69;;;28.03;41.83
54236;BME280;40151;43.606;1.472;2022-07-29T07:02:22;99527.88;;;28.05;41.97
54236;BME280;40151;43.606;1.472;2022-07-29T07:04:48;99523.38;;;28.05;41.85
54236;BME280;40151;43.606;1.472;2022-07-29T07:07:19;99514.59;;;28.03;42.00
54236;BME280;40151;43.606;1.472;2022-07-29T07:09:45;99530.56;;;28.05;41.72
54236;BME280;40151;43.606;1.472;2022-07-29T07:12:11;99532.41;;;28.04;42.23
54236;BME280;40151;43.606;1.472;2022-07-29T07:14:37;99520.94;;;28.02;42.06
54236;BME280;40151;43.606;1.472;2022-07-29T07:17:05;99518.28;;;28.02;42.09
54236;BME280;40151;43.606;1.472;2022-07-29T07:19:32;99515.59;;;28.02;41.86
54236;BME280;40151;43.606;1.472;2022-07-29T07:21:58;99513.19;;;27.99;41.96
54236;BME280;40151;43.606;1.472;2022-07-29T07:24:24;99501.47;;;28.00;42.13
54236;BME280;40151;43.606;1.472;2022-07-29T07:26:49;99505.97;;;27.99;42.07
54236;BME280;40151;43.606;1.472;2022-07-29T07:29:16;99515.72;;;28.00;41.96
54236;BME280;40151;43.606;1.472;2022-07-29T07:31:42;99516.72;;;27.99;42.05
54236;BME280;40151;43.606;1.472;2022-07-29T07:34:08;99525.63;;;28.00;42.11
54236;BME280;40151;43.606;1.472;2022-07-29T07:36:47;99515.72;;;28.00;41.85
54236;BME280;40151;43.606;1.472;2022-07-29T07:39:24;99514.88;;;28.00;42.34
54236;BME280;40151;43.606;1.472;2022-07-29T07:41:53;99524.75;;;27.99;41.98
54236;BME280;40151;43.606;1.472;2022-07-29T07:44:22;99521.38;;;27.97;42.29
54236;BME280;40151;43.606;1.472;2022-07-29T07:46:48;99508.97;;;27.96;41.87
54236;BME280;40151;43.606;1.472;2022-07-29T07:52:20;99504.44;;;27.97;41.99
54236;BME280;40151;43.606;1.472;2022-07-29T07:54:49;99513.47;;;27.96;41.88
54236;BME280;40151;43.606;1.472;2022-07-29T08:03:24;99523.19;;;27.97;42.41
54236;BME280;40151;43.606;1.472;2022-07-29T08:05:56;99523.34;;;27.95;42.16
54236;BME280;40151;43.606;1.472;2022-07-29T08:10:59;99534.91;;;27.96;42.83
54236;BME280;40151;43.606;1.472;2022-07-29T08:13:36;99533.34;;;27.93;42.41
54236;BME280;40151;43.606;1.472;2022-07-29T08:31:32;99579.81;;;27.94;42.04
54236;BME280;40151;43.606;1.472;2022-07-29T08:34:03;99580.91;;;27.91;42.45
54236;BME280;40151;43.606;1.472;2022-07-29T08:36:31;99589.09;;;27.90;42.54
54236;BME280;40151;43.606;1.472;2022-07-29T08:39:01;99592.47;;;27.92;42.44
54236;BME280;40151;43.606;1.472;2022-07-29T08:51:31;99598.25;;;27.87;42.70
54236;BME280;40151;43.606;1.472;2022-07-29T09:10:07;99594.75;;;27.86;42.44
54236;BME280;40151;43.606;1.472;2022-07-29T09:12:48;99594.75;;;27.86;42.63
54236;BME280;40151;43.606;1.472;2022-07-29T09:15:41;99598.38;;;27.85;42.96
54236;BME280;40151;43.606;1.472;2022-07-29T09:22:00;99576.22;;;27.83;42.90
54236;BME280;40151;43.606;1.472;2022-07-29T09:28:33;99569.88;;;27.84;42.29
54236;BME280;40151;43.606;1.472;2022-07-29T09:31:08;99564.53;;;27.84;42.67
54236;BME280;40151;43.606;1.472;2022-07-29T09:36:20;99544.06;;;27.83;42.85
54236;BME280;40151;43.606;1.472;2022-07-29T09:39:04;99536.03;;;27.83;42.94
54236;BME280;40151;43.606;1.472;2022-07-29T09:41:47;99526.97;;;27.84;42.69
54236;BME280;40151;43.606;1.472;2022-07-29T09:44:15;99519.94;;;27.83;43.16
54236;BME280;40151;43.606;1.472;2022-07-29T09:47:03;99516.56;;;27.81;43.25
54236;BME280;40151;43.606;1.472;2022-07-29T09:49:33;99521.91;;;27.81;43.35
54236;BME280;40151;43.606;1.472;2022-07-29T09:55:09;99525.16;;;27.85;43.57
54236;BME280;40151;43.606;1.472;2022-07-29T09:57:39;99532.09;;;27.87;43.24
54236;BME280;40151;43.606;1.472;2022-07-29T10:10:33;99554.94;;;27.92;43.26
54236;BME280;40151;43.606;1.472;2022-07-29T10:13:23;99558.22;;;27.95;43.07
54236;BME280;40151;43.606;1.472;2022-07-29T10:20:18;99559.06;;;27.96;43.50
54236;BME280;40151;43.606;1.472;2022-07-29T10:23:08;99545.66;;;27.96;43.46
54236;BME280;40151;43.606;1.472;2022-07-29T10:25:45;99545.66;;;27.96;42.57
54236;BME280;40151;43.606;1.472;2022-07-29T10:44:31;99531.25;;;28.07;42.93
54236;BME280;40151;43.606;1.472;2022-07-29T10:47:25;99535.78;;;28.06;43.21
54236;BME280;40151;43.606;1.472;2022-07-29T10:50:06;99531.25;;;28.07;42.93
54236;BME280;40151;43.606;1.472;2022-07-29T10:52:56;99526.63;;;28.09;43.01
54236;BME280;40151;43.606;1.472;2022-07-29T10:55:39;99517.44;;;28.11;42.76
54236;BME280;40151;43.606;1.472;2022-07-29T10:58:20;99517.44;;;28.11;43.29
54236;BME280;40151;43.606;1.472;2022-07-29T11:01:29;99522.53;;;28.14;43.04
54236;BME280;40151;43.606;1.472;2022-07-29T11:03:58;99520.56;;;28.17;42.64
54236;BME280;40151;43.606;1.472;2022-07-29T11:12:57;99510.53;;;28.19;42.93
54236;BME280;40151;43.606;1.472;2022-07-29T11:15:25;99502.47;;;28.19;42.74
54236;BME280;40151;43.606;1.472;2022-07-29T11:20:45;99505.03;;;28.20;43.15
54236;BME280;40151;43.606;1.472;2022-07-29T11:23:31;99498.56;;;28.23;42.88
54236;BME280;40151;43.606;1.472;2022-07-29T11:29:24;99505.34;;;28.27;42.49
54236;BME280;40151;43.606;1.472;2022-07-29T11:31:52;99494.59;;;28.27;42.53
54236;BME280;40151;43.606;1.472;2022-07-29T11:34:32;99497.28;;;28.27;42.47
54236;BME280;40151;43.606;1.472;2022-07-29T11:37:14;99508.75;;;28.29;42.34
54236;BME280;40151;43.606;1.472;2022-07-29T11:47:19;99490.53;;;28.33;42.28
54236;BME280;40151;43.606;1.472;2022-07-29T11:50:15;99492.06;;;28.35;42.36
54236;BME280;40151;43.606;1.472;2022-07-29T11:52:44;99490.09;;;28.37;41.98
54236;BME280;40151;43.606;1.472;2022-07-29T11:55:18;99486.41;;;28.38;42.15
54236;BME280;40151;43.606;1.472;2022-07-29T11:58:05;99475.41;;;28.41;42.28
54236;BME280;40151;43.606;1.472;2022-07-29T12:00:40;99478.78;;;28.44;42.44
54236;BME280;40151;43.606;1.472;2022-07-29T12:03:10;99477.78;;;28.45;42.20
54236;BME280;40151;43.606;1.472;2022-07-29T12:05:48;99476.81;;;28.46;42.04
54236;BME280;40151;43.606;1.472;2022-07-29T12:08:17;99475.53;;;28.50;42.40
54236;BME280;40151;43.606;1.472;2022-07-29T12:10:53;99480.75;;;28.51;42.25
54236;BME280;40151;43.606;1.472;2022-07-29T12:13:38;99480.63;;;28.53;42.05
54236;BME280;40151;43.606;1.472;2022-07-29T12:16:06;99485.00;;;28.54;42.01
54236;BME280;40151;43.606;1.472;2022-07-29T12:18:34;99475.94;;;28.55;41.97
54236;BME280;40151;43.606;1.472;2022-07-29T12:21:01;99485.84;;;28.54;42.30
54236;BME280;40151;43.606;1.472;2022-07-29T12:23:31;99468.59;;;28.57;42.02
54236;BME280;40151;43.606;1.472;2022-07-29T12:25:58;99471.28;;;28.57;42.24
54236;BME280;40151;43.606;1.472;2022-07-29T12:28:25;99474.81;;;28.58;41.94
54236;BME280;40151;43.606;1.472;2022-07-29T12:30:52;99484.41;;;28.60;41.59
54236;BME280;40151;43.606;1.472;2022-07-29T12:33:29;99492.34;;;28.62;41.69
54236;BME280;40151;43.606;1.472;2022-07-29T12:35:57;99490.47;;;28.62;41.68
54236;BME280;40151;43.606;1.472;2022-07-29T12:38:24;99490.34;;;28.64;41.87
54236;BME280;40151;43.606;1.472;2022-07-29T12:40:53;99485.66;;;28.66;41.73
54236;BME280;40151;43.606;1.472;2022-07-29T12:43:21;99490.91;;;28.67;41.77
54236;BME280;40151;43.606;1.472;2022-07-29T12:45:56;99491.03;;;28.66;41.93
54236;BME280;40151;43.606;1.472;2022-07-29T12:48:40;99501.63;;;28.67;41.67
54236;BME280;40151;43.606;1.472;2022-07-29T12:51:08;99497.81;;;28.70;41.59
54236;BME280;40151;43.606;1.472;2022-07-29T12:53:37;99501.38;;;28.71;41.55
54236;BME280;40151;43.606;1.472;2022-07-29T12:56:04;99500.38;;;28.72;41.71
54236;BME280;40151;43.606;1.472;2022-07-29T12:58:37;99496.00;;;28.71;41.57
54236;BME280;40151;43.606;1.472;2022-07-29T13:01:10;99498.69;;;28.71;41.71
54236;BME280;40151;43.606;1.472;2022-07-29T13:03:58;99499.38;;;28.73;41.52
54236;BME280;40151;43.606;1.472;2022-07-29T13:06:44;99493.00;;;28.74;41.52
54236;BME280;40151;43.606;1.472;2022-07-29T13:09:21;99492.00;;;28.75;41.22
54236;BME280;40151;43.606;1.472;2022-07-29T13:11:50;99494.56;;;28.76;41.31
54236;BME280;40151;43.606;1.472;2022-07-29T13:17:19;99493.44;;;28.79;41.26
54236;BME280;40151;43.606;1.472;2022-07-29T13:20:11;99486.38;;;28.78;41.31
54236;BME280;40151;43.606;1.472;2022-07-29T13:22:42;99487.22;;;28.78;41.06
54236;BME280;40151;43.606;1.472;2022-07-29T13:25:10;99487.06;;;28.80;41.37
54236;BME280;40151;43.606;1.472;2022-07-29T13:27:40;99492.44;;;28.80;41.53
54236;BME280;40151;43.606;1.472;2022-07-29T13:30:09;99495.13;;;28.80;41.32
54236;BME280;40151;43.606;1.472;2022-07-29T13:32:38;99490.59;;;28.80;40.99
54236;BME280;40151;43.606;1.472;2022-07-29T13:35:07;99494.84;;;28.83;41.06
54236;BME280;40151;43.606;1.472;2022-07-29T13:37:41;99505.59;;;28.83;41.31
54236;BME280;40151;43.606;1.472;2022-07-29T13:40:13;99502.91;;;28.83;41.03
54236;BME280;40151;43.606;1.472;2022-07-29T13:42:40;99508.13;;;28.85;41.46
54236;BME280;40151;43.606;1.472;2022-07-29T13:45:07;99508.97;;;28.85;41.23
54236;BME280;40151;43.606;1.472;2022-07-29T13:47:34;99508.97;;;28.85;41.26
54236;BME280;40151;43.606;1.472;2022-07-29T13:50:01;99521.41;;;28.86;41.30
54236;BME280;40151;43.606;1.472;2022-07-29T13:52:27;99515.09;;;28.87;40.86
54236;BME280;40151;43.606;1.472;2022-07-29T13:54:53;99514.09;;;28.88;41.33
54236;BME280;40151;43.606;1.472;2022-07-29T13:57:21;99522.00;;;28.90;41.22
54236;BME280;40151;43.606;1.472;2022-07-29T13:59:59;99517.47;;;28.90;41.39
54236;BME280;40151;43.606;1.472;2022-07-29T14:02:26;99521.84;;;28.91;41.15
54236;BME280;40151;43.606;1.472;2022-07-29T14:04:53;99515.47;;;28.92;41.19
54236;BME280;40151;43.606;1.472;2022-07-29T14:07:19;99508.28;;;28.93;41.07
54236;BME280;40151;43.606;1.472;2022-07-29T14:09:57;99508.13;;;28.94;41.16
54236;BME280;40151;43.606;1.472;2022-07-29T14:12:24;99511.66;;;28.95;41.36
54236;BME280;40151;43.606;1.472;2022-07-29T14:14:54;99509.81;;;28.96;41.10
54236;BME280;40151;43.606;1.472;2022-07-29T14:17:25;99517.75;;;28.97;40.76
54236;BME280;40151;43.606;1.472;2022-07-29T14:19:54;99515.88;;;28.98;41.16
54236;BME280;40151;43.606;1.472;2022-07-29T14:22:24;99515.75;;;28.99;41.09
54236;BME280;40151;43.606;1.472;2022-07-29T14:24:50;99508.69;;;28.98;41.18
54236;BME280;40151;43.606;1.472;2022-07-29T14:27:16;99503.19;;;29.00;40.76
54236;BME280;40151;43.606;1.472;2022-07-29T14:29:51;99503.19;;;29.00;41.10
54236;BME280;40151;43.606;1.472;2022-07-29T14:32:29;99492.13;;;29.03;41.01
54236;BME280;40151;43.606;1.472;2022-07-29T14:34:55;99498.22;;;29.05;41.31
54236;BME280;40151;43.606;1.472;2022-07-29T14:38:01;99486.47;;;29.06;40.85
54236;BME280;40151;43.606;1.472;2022-07-29T14:40:32;99492.84;;;29.05;40.87
54236;BME280;40151;43.606;1.472;2022-07-29T14:42:59;99488.31;;;29.05;41.01
54236;BME280;40151;43.606;1.472;2022-07-29T14:45:29;99498.91;;;29.07;41.01
54236;BME280;40151;43.606;1.472;2022-07-29T14:47:55;99480.97;;;29.07;41.05
54236;BME280;40151;43.606;1.472;2022-07-29T14:50:21;99476.41;;;29.08;40.95
54236;BME280;40151;43.606;1.472;2022-07-29T14:52:47;99485.16;;;29.10;40.98
54236;BME280;40151;43.606;1.472;2022-07-29T14:55:13;99496.63;;;29.12;40.90
54236;BME280;40151;43.606;1.472;2022-07-29T14:57:38;99497.63;;;29.11;40.81
54236;BME280;40151;43.606;1.472;2022-07-29T15:00:06;99486.56;;;29.14;41.25
54236;BME280;40151;43.606;1.472;2022-07-29T15:02:33;99491.94;;;29.14;40.92
54236;BME280;40151;43.606;1.472;2022-07-29T15:04:59;99495.50;;;29.15;41.30
54236;BME280;40151;43.606;1.472;2022-07-29T15:07:27;99489.97;;;29.16;40.84
54236;BME280;40151;43.606;1.472;2022-07-29T15:09:52;99496.19;;;29.17;40.92
54236;BME280;40151;43.606;1.472;2022-07-29T15:12:20;99489.97;;;29.16;41.21
54236;BME280;40151;43.606;1.472;2022-07-29T15:14:49;99494.19;;;29.19;40.78
54236;BME280;40151;43.606;1.472;2022-07-29T15:17:15;99489.66;;;29.19;40.87
54236;BME280;40151;43.606;1.472;2022-07-29T15:19:41;99483.28;;;29.20;40.66
54236;BME280;40151;43.606;1.472;2022-07-29T15:22:07;99490.53;;;29.20;40.70
54236;BME280;40151;43.606;1.472;2022-07-29T15:24:35;99491.34;;;29.20;41.14
54236;BME280;40151;43.606;1.472;2022-07-29T15:27:02;99493.03;;;29.21;41.01
54236;BME280;40151;43.606;1.472;2022-07-29T15:29:28;99501.81;;;29.24;41.05
54236;BME280;40151;43.606;1.472;2022-07-29T15:31:54;99499.13;;;29.24;40.68
54236;BME280;40151;43.606;1.472;2022-07-29T15:34:20;99501.81;;;29.24;40.76
54236;BME280;40151;43.606;1.472;2022-07-29T15:36:51;99498.16;;;29.25;40.98
54236;BME280;40151;43.606;1.472;2022-07-29T15:39:20;99498.16;;;29.25;40.96
54236;BME280;40151;43.606;1.472;2022-07-29T15:41:47;99503.50;;;29.25;40.85
54236;BME280;40151;43.606;1.472;2022-07-29T15:44:13;99505.19;;;29.26;40.49
54236;BME280;40151;43.606;1.472;2022-07-29T15:46:43;99500.69;;;29.26;40.54
54236;BME280;40151;43.606;1.472;2022-07-29T15:49:28;99498.81;;;29.27;40.69
54236;BME280;40151;43.606;1.472;2022-07-29T15:52:06;99497.81;;;29.28;40.99
54236;BME280;40151;43.606;1.472;2022-07-29T15:54:51;99500.38;;;29.29;40.83
54236;BME280;40151;43.606;1.472;2022-07-29T15:57:18;99494.19;;;29.29;41.01
54236;BME280;40151;43.606;1.472;2022-07-29T15:59:44;99507.44;;;29.30;40.52
54236;BME280;40151;43.606;1.472;2022-07-29T16:02:20;99495.84;;;29.30;40.84
54236;BME280;40151;43.606;1.472;2022-07-29T16:04:49;99505.59;;;29.31;40.52
54236;BME280;40151;43.606;1.472;2022-07-29T16:07:17;99498.56;;;29.30;40.39
54236;BME280;40151;43.606;1.472;2022-07-29T16:10:16;99500.22;;;29.31;40.63
54236;BME280;40151;43.606;1.472;2022-07-29T16:13:23;99499.22;;;29.32;40.66
54236;BME280;40151;43.606;1.472;2022-07-29T16:16:27;99505.28;;;29.34;40.76
54236;BME280;40151;43.606;1.472;2022-07-29T16:19:07;99499.09;;;29.33;40.66
54236;BME280;40151;43.606;1.472;2022-07-29T16:21:51;99504.34;;;29.35;40.63
54236;BME280;40151;43.606;1.472;2022-07-29T16:24:40;99498.09;;;29.34;40.33
54236;BME280;40151;43.606;1.472;2022-07-29T16:27:10;99505.16;;;29.35;40.54
54236;BME280;40151;43.606;1.472;2022-07-29T16:29:44;99506.00;;;29.36;40.49
54236;BME280;40151;43.606;1.472;2022-07-29T16:32:13;99515.78;;;29.37;40.41
54236;BME280;40151;43.606;1.472;2022-07-29T16:34:40;99506.00;;;29.36;40.45
54236;BME280;40151;43.606;1.472;2022-07-29T16:37:06;99507.72;;;29.37;40.55
54236;BME280;40151;43.606;1.472;2022-07-29T16:39:32;99498.66;;;29.38;40.66
54236;BME280;40151;43.606;1.472;2022-07-29T16:41:59;99499.50;;;29.39;40.54
54236;BME280;40151;43.606;1.472;2022-07-29T16:44:25;99509.41;;;29.38;40.55
54236;BME280;40151;43.606;1.472;2022-07-29T16:46:51;99508.38;;;29.39;40.33
54236;BME280;40151;43.606;1.472;2022-07-29T16:49:17;99512.06;;;29.38;40.61
54236;BME280;40151;43.606;1.472;2022-07-29T16:51:43;99506.56;;;29.40;40.39
54236;BME280;40151;43.606;1.472;2022-07-29T16:54:09;99513.63;;;29.41;40.30
54236;BME280;40151;43.606;1.472;2022-07-29T16:56:37;99512.81;;;29.40;40.71
54236;BME280;40151;43.606;1.472;2022-07-29T16:59:03;99509.13;;;29.41;40.55
54236;BME280;40151;43.606;1.472;2022-07-29T17:01:29;99515.31;;;29.42;40.60
54236;BME280;40151;43.606;1.472;2022-07-29T17:03:55;99516.31;;;29.41;40.62
54236;BME280;40151;43.606;1.472;2022-07-29T17:06:38;99519.88;;;29.41;40.46
54236;BME280;40151;43.606;1.472;2022-07-29T17:09:22;99525.25;;;29.41;40.56
54236;BME280;40151;43.606;1.472;2022-07-29T17:11:51;99525.25;;;29.41;40.74
54236;BME280;40151;43.606;1.472;2022-07-29T17:14:30;99529.75;;;29.41;40.68
54236;BME280;40151;43.606;1.472;2022-07-29T17:17:05;99536.00;;;29.41;40.78
54236;BME280;40151;43.606;1.472;2022-07-29T17:23:52;99538.50;;;29.43;40.62
54236;BME280;40151;43.606;1.472;2022-07-29T17:26:19;99537.81;;;29.41;41.19
54236;BME280;40151;43.606;1.472;2022-07-29T17:28:45;99536.00;;;29.41;41.26
54236;BME280;40151;43.606;1.472;2022-07-29T17:31:13;99542.38;;;29.40;41.44
54236;BME280;40151;43.606;1.472;2022-07-29T17:33:39;99546.03;;;29.39;40.91
54236;BME280;40151;43.606;1.472;2022-07-29T17:36:14;99548.72;;;29.39;41.08
54236;BME280;40151;43.606;1.472;2022-07-29T17:39:07;99551.41;;;29.39;40.97
54236;BME280;40151;43.606;1.472;2022-07-29T17:41:38;99550.44;;;29.40;40.83
54236;BME280;40151;43.606;1.472;2022-07-29T17:44:08;99554.09;;;29.39;40.48
54236;BME280;40151;43.606;1.472;2022-07-29T17:46:35;99552.25;;;29.40;40.66
54236;BME280;40151;43.606;1.472;2022-07-29T17:49:01;99559.47;;;29.39;40.67
54236;BME280;40151;43.606;1.472;2022-07-29T17:51:27;99558.63;;;29.39;40.99
54236;BME280;40151;43.606;1.472;2022-07-29T17:53:53;99568.53;;;29.38;41.38
54236;BME280;40151;43.606;1.472;2022-07-29T17:56:20;99569.38;;;29.39;41.14
54236;BME280;40151;43.606;1.472;2022-07-29T17:58:48;99568.53;;;29.38;41.17
54236;BME280;40151;43.606;1.472;2022-07-29T18:01:16;99557.91;;;29.37;41.38
54236;BME280;40151;43.606;1.472;2022-07-29T18:03:43;99565.16;;;29.36;41.03
54236;BME280;40151;43.606;1.472;2022-07-29T18:06:13;99565.16;;;29.36;41.56
54236;BME280;40151;43.606;1.472;2022-07-29T18:08:40;99564.28;;;29.35;41.61
54236;BME280;40151;43.606;1.472;2022-07-29T18:11:11;99567.09;;;29.34;41.40
54236;BME280;40151;43.606;1.472;2022-07-29T18:17:17;99558.34;;;29.32;42.69
54236;BME280;40151;43.606;1.472;2022-07-29T18:19:43;99577.84;;;29.34;42.20
54236;BME280;40151;43.606;1.472;2022-07-29T18:22:09;99574.47;;;29.32;42.03
54236;BME280;40151;43.606;1.472;2022-07-29T18:24:40;99574.47;;;29.32;41.55
54236;BME280;40151;43.606;1.472;2022-07-29T18:27:26;99583.53;;;29.31;41.72
54236;BME280;40151;43.606;1.472;2022-07-29T18:29:54;99583.53;;;29.31;42.06
54236;BME280;40151;43.606;1.472;2022-07-29T18:39:23;99585.53;;;29.29;42.39
54236;BME280;40151;43.606;1.472;2022-07-29T18:45:27;99599.94;;;29.28;42.14
54236;BME280;40151;43.606;1.472;2022-07-29T18:48:30;99599.25;;;29.26;42.51
54236;BME280;40151;43.606;1.472;2022-07-29T18:50:59;99601.94;;;29.26;42.67
54236;BME280;40151;43.606;1.472;2022-07-29T18:53:29;99611.00;;;29.25;42.53
54236;BME280;40151;43.606;1.472;2022-07-29T18:56:30;99609.16;;;29.25;42.65
54236;BME280;40151;43.606;1.472;2022-07-29T18:59:05;99609.31;;;29.24;42.79
54236;BME280;40151;43.606;1.472;2022-07-29T19:01:37;99613.81;;;29.23;42.80
54236;BME280;40151;43.606;1.472;2022-07-29T19:04:03;99623.75;;;29.23;42.79
54236;BME280;40151;43.606;1.472;2022-07-29T19:06:39;99621.06;;;29.23;42.78
54236;BME280;40151;43.606;1.472;2022-07-29T19:09:14;99620.31;;;29.20;43.25
54236;BME280;40151;43.606;1.472;2022-07-29T19:11:46;99634.75;;;29.19;43.17
54236;BME280;40151;43.606;1.472;2022-07-29T19:14:29;99635.63;;;29.20;43.11
54236;BME280;40151;43.606;1.472;2022-07-29T19:17:13;99638.44;;;29.18;43.13
54236;BME280;40151;43.606;1.472;2022-07-29T19:19:41;99638.44;;;29.18;43.09
54236;BME280;40151;43.606;1.472;2022-07-29T19:22:34;99635.91;;;29.17;43.05
54236;BME280;40151;43.606;1.472;2022-07-29T19:48:54;99676.91;;;29.09;43.42
54236;BME280;40151;43.606;1.472;2022-07-29T19:51:40;99680.59;;;29.08;43.27
54236;BME280;40151;43.606;1.472;2022-07-29T19:54:10;99691.31;;;29.08;43.55
54236;BME280;40151;43.606;1.472;2022-07-29T20:03:44;99700.50;;;29.05;43.11
54236;BME280;40151;43.606;1.472;2022-07-29T20:06:22;99693.44;;;29.04;43.29
54236;BME280;40151;43.606;1.472;2022-07-29T20:08:49;99699.81;;;29.03;43.17
54236;BME280;40151;43.606;1.472;2022-07-29T20:11:23;99706.19;;;29.02;43.41
54236;BME280;40151;43.606;1.472;2022-07-29T20:13:55;99715.94;;;29.03;43.23
54236;BME280;40151;43.606;1.472;2022-07-29T20:16:45;99712.53;;;29.01;43.50
54236;BME280;40151;43.606;1.472;2022-07-29T20:19:16;99715.38;;;29.00;43.43
54236;BME280;40151;43.606;1.472;2022-07-29T20:22:04;99715.50;;;28.98;43.47
54236;BME280;40151;43.606;1.472;2022-07-29T20:24:41;99732.31;;;29.00;43.29
54236;BME280;40151;43.606;1.472;2022-07-29T20:27:24;99728.06;;;28.98;43.38
54236;BME280;40151;43.606;1.472;2022-07-29T20:29:53;99733.44;;;28.98;43.55
54236;BME280;40151;43.606;1.472;2022-07-29T20:36:33;99740.81;;;28.96;43.57
54236;BME280;40151;43.606;1.472;2022-07-29T20:39:07;99744.50;;;28.94;43.45
54236;BME280;40151;43.606;1.472;2022-07-29T20:42:02;99746.44;;;28.92;43.46
54236;BME280;40151;43.606;1.472;2022-07-29T20:44:29;99751.81;;;28.92;43.54
54236;BME280;40151;43.606;1.472;2022-07-29T20:46:55;99754.50;;;28.92;43.65
54236;BME280;40151;43.606;1.472;2022-07-29T20:49:23;99755.50;;;28.91;43.62
54236;BME280;40151;43.606;1.472;2022-07-29T20:51:55;99753.81;;;28.90;43.70
54236;BME280;40151;43.606;1.472;2022-07-29T20:54:23;99759.19;;;28.90;43.63
54236;BME280;40151;43.606;1.472;2022-07-29T20:56:57;99757.47;;;28.89;43.90